Time;durP1;ratioP1;P1;durP2;ratioP2;P2;SDS_P1;SDS_P2;PMS_P1;PMS_P2;Temp;Humidity;BMP_temperature;BMP_pressure;BME280_temperature;BME280_humidity;BME280_pressure;Samples;Min_cycle;Max_cycle;Signal;HPM_P1;HPM_P2
2021/04/24 00:00:28;;;;;;;6.00;3.47;;;3.00;69.40;;;;;;4967155;28;20684;-74
2021/04/24 00:02:54;;;;;;;7.68;3.80;;;2.90;69.20;;;;;;4967348;28;20120;-74
2021/04/24 00:05:24;;;;;;;9.68;4.72;;;2.90;69.10;;;;;;4967377;28;20446;-75
2021/04/24 00:07:58;;;;;;;14.60;5.68;;;3.00;68.60;;;;;;4967600;28;20050;-75
2021/04/24 00:10:25;;;;;;;8.57;4.57;;;2.90;69.30;;;;;;4965974;28;20135;-75
2021/04/24 00:12:51;;;;;;;7.03;3.58;;;2.80;68.50;;;;;;4967065;28;20027;-75
2021/04/24 00:15:17;;;;;;;8.27;3.88;;;2.90;67.70;;;;;;4966021;28;20034;-75
2021/04/24 00:17:42;;;;;;;5.78;3.03;;;2.80;67.90;;;;;;4983038;28;20037;-74
2021/04/24 00:20:11;;;;;;;6.75;2.85;;;2.70;66.90;;;;;;4967969;28;20379;-75
2021/04/24 00:22:37;;;;;;;7.57;3.33;;;2.60;68.20;;;;;;4981706;28;20034;-75
2021/04/24 00:25:04;;;;;;;4.60;3.22;;;2.50;69.60;;;;;;4967067;28;20050;-75
2021/04/24 00:27:30;;;;;;;5.30;2.67;;;2.50;70.50;;;;;;4966602;28;20614;-75
2021/04/24 00:29:55;;;;;;;3.83;2.55;;;2.60;69.30;;;;;;4965971;28;20023;-75
2021/04/24 00:32:21;;;;;;;8.60;2.80;;;2.60;70.20;;;;;;4963827;28;20031;-75
2021/04/24 00:34:47;;;;;;;5.03;3.17;;;2.60;70.80;;;;;;4959350;28;20030;-75
2021/04/24 00:37:12;;;;;;;4.90;2.97;;;2.60;70.00;;;;;;4963121;28;20077;-75
2021/04/24 00:39:38;;;;;;;4.40;3.25;;;2.60;69.10;;;;;;4964758;28;20053;-75
2021/04/24 00:42:04;;;;;;;5.32;2.90;;;2.70;69.20;;;;;;4966870;28;20030;-75
2021/04/24 00:44:30;;;;;;;3.95;3.55;;;2.80;68.80;;;;;;4965322;28;20037;-75
2021/04/24 00:46:55;;;;;;;5.15;3.40;;;2.80;68.60;;;;;;4964782;28;20033;-74
2021/04/24 00:49:21;;;;;;;5.47;2.88;;;2.80;68.60;;;;;;4963264;28;20026;-75
2021/04/24 00:51:47;;;;;;;3.92;2.88;;;2.80;68.30;;;;;;4965069;28;20083;-74
2021/04/24 00:54:12;;;;;;;4.20;3.50;;;2.90;69.10;;;;;;4960838;28;20038;-74
2021/04/24 00:56:38;;;;;;;9.05;4.05;;;2.90;68.60;;;;;;4967384;28;20038;-75
2021/04/24 00:59:04;;;;;;;5.60;2.92;;;2.80;69.00;;;;;;4967462;28;20090;-74
2021/04/24 01:01:30;;;;;;;9.60;3.75;;;2.70;69.40;;;;;;4980069;28;20035;-74
2021/04/24 01:03:56;;;;;;;7.75;4.28;;;2.60;70.20;;;;;;4962094;28;20108;-74
2021/04/24 01:06:22;;;;;;;4.38;2.47;;;2.50;70.10;;;;;;4968000;28;20030;-74
2021/04/24 01:08:48;;;;;;;2.80;2.35;;;2.40;70.20;;;;;;4965247;28;20031;-75
2021/04/24 01:11:13;;;;;;;4.80;2.50;;;2.30;70.10;;;;;;4961222;28;20107;-75
2021/04/24 01:13:39;;;;;;;7.18;2.83;;;2.30;70.90;;;;;;4967785;28;20054;-75
2021/04/24 01:16:05;;;;;;;4.07;2.53;;;2.20;71.30;;;;;;4957931;28;20039;-75
2021/04/24 01:18:31;;;;;;;4.43;2.95;;;2.10;71.70;;;;;;4957961;28;20045;-75
2021/04/24 01:20:58;;;;;;;3.63;2.47;;;2.10;71.70;;;;;;4971101;28;20055;-75
2021/04/24 01:23:24;;;;;;;4.75;2.80;;;2.10;71.50;;;;;;4961399;28;20023;-75
2021/04/24 01:25:50;;;;;;;6.32;3.30;;;2.10;71.70;;;;;;4966529;28;20523;-75
2021/04/24 01:28:16;;;;;;;9.05;3.67;;;1.90;72.40;;;;;;4965769;28;20039;-75
2021/04/24 01:30:44;;;;;;;5.32;3.22;;;1.90;72.40;;;;;;4958420;28;20126;-75
2021/04/24 01:33:11;;;;;;;6.03;3.67;;;1.80;72.20;;;;;;4960448;28;20584;-75
2021/04/24 01:35:40;;;;;;;9.63;4.10;;;1.90;71.10;;;;;;4961131;28;20030;-75
2021/04/24 01:38:07;;;;;;;5.00;3.58;;;2.00;71.60;;;;;;4957983;28;20065;-75
2021/04/24 01:40:33;;;;;;;8.52;3.20;;;2.00;71.70;;;;;;4967607;28;20023;-75
2021/04/24 01:42:58;;;;;;;7.45;3.28;;;2.10;71.00;;;;;;4949261;28;20062;-74
2021/04/24 01:45:26;;;;;;;6.22;2.85;;;2.10;70.80;;;;;;4964344;28;20130;-75
2021/04/24 01:47:53;;;;;;;4.90;3.42;;;2.10;71.10;;;;;;4978105;28;20042;-75
2021/04/24 01:50:26;;;;;;;3.05;2.60;;;2.10;71.00;;;;;;4962339;28;20039;-74
2021/04/24 01:52:53;;;;;;;6.13;3.20;;;2.00;71.10;;;;;;4965912;28;20027;-75
2021/04/24 01:55:23;;;;;;;5.75;3.28;;;2.10;70.90;;;;;;4970899;28;20025;-75
2021/04/24 01:57:50;;;;;;;6.00;3.72;;;2.00;71.80;;;;;;4982236;28;20126;-75
2021/04/24 02:00:24;;;;;;;5.70;3.30;;;1.90;72.90;;;;;;4966762;28;20038;-75
2021/04/24 02:02:52;;;;;;;9.15;3.10;;;1.80;73.20;;;;;;4966330;28;20019;-75
2021/04/24 02:05:19;;;;;;;4.57;3.47;;;1.70;73.90;;;;;;4959342;28;20023;-75
2021/04/24 02:07:59;;;;;;;2.97;2.55;;;1.60;73.40;;;;;;4968308;28;20035;-75
2021/04/24 02:10:26;;;;;;;2.85;2.35;;;1.60;73.20;;;;;;4968025;28;20035;-75
2021/04/24 02:12:52;;;;;;;4.47;2.63;;;1.60;72.70;;;;;;4968180;28;20441;-75
2021/04/24 02:15:19;;;;;;;4.22;2.53;;;1.60;73.00;;;;;;4970260;28;20149;-75
2021/04/24 02:17:44;;;;;;;5.47;2.40;;;1.60;72.90;;;;;;4985570;28;20049;-75
2021/04/24 02:20:11;;;;;;;3.97;2.85;;;1.60;73.40;;;;;;4972848;28;20063;-75
2021/04/24 02:22:37;;;;;;;3.35;2.60;;;1.50;74.00;;;;;;4973672;28;20500;-75
2021/04/24 02:25:05;;;;;;;10.70;2.65;;;1.50;74.30;;;;;;4970366;28;20030;-75
2021/04/24 02:27:31;;;;;;;4.20;2.83;;;1.40;74.10;;;;;;4985640;28;20023;-75
2021/04/24 02:29:56;;;;;;;7.47;3.00;;;1.40;73.40;;;;;;4972471;28;20046;-74
2021/04/24 02:32:29;;;;;;;4.15;2.45;;;1.50;73.40;;;;;;4969710;28;20538;-74
2021/04/24 02:34:55;;;;;;;2.83;2.45;;;1.50;73.10;;;;;;4966727;28;20367;-75
2021/04/24 02:37:20;;;;;;;4.50;2.92;;;1.50;73.30;;;;;;4986131;28;20046;-75
2021/04/24 02:39:49;;;;;;;3.47;3.03;;;1.50;73.20;;;;;;4969096;28;20023;-74
2021/04/24 02:42:20;;;;;;;5.38;3.00;;;1.50;73.10;;;;;;4964966;28;20034;-75
2021/04/24 02:44:46;;;;;;;2.97;2.33;;;1.50;73.30;;;;;;4965491;28;20501;-75
2021/04/24 02:47:12;;;;;;;5.95;2.95;;;1.50;73.60;;;;;;4967177;28;20332;-75
2021/04/24 02:49:38;;;;;;;5.43;2.65;;;1.50;73.30;;;;;;4973515;28;20058;-75
2021/04/24 02:52:05;;;;;;;4.30;2.72;;;1.50;73.10;;;;;;4966632;28;20094;-75
2021/04/24 02:54:32;;;;;;;3.95;2.70;;;1.40;73.50;;;;;;4969965;28;20457;-75
2021/04/24 02:56:58;;;;;;;2.90;2.40;;;1.50;73.60;;;;;;4970537;28;20341;-75
2021/04/24 02:59:23;;;;;;;3.95;2.95;;;1.40;73.70;;;;;;4971836;28;20031;-74
2021/04/24 03:01:49;;;;;;;7.72;3.30;;;1.20;74.70;;;;;;4967730;28;20035;-75
2021/04/24 03:04:16;;;;;;;3.38;2.55;;;1.10;75.00;;;;;;4968157;28;20042;-75
2021/04/24 03:06:42;;;;;;;3.72;2.88;;;1.00;75.20;;;;;;4962802;28;20031;-75
2021/04/24 03:09:08;;;;;;;3.38;2.38;;;1.00;75.90;;;;;;4971005;28;20031;-74
2021/04/24 03:11:35;;;;;;;7.40;2.95;;;1.00;75.50;;;;;;4987928;28;20026;-75
2021/04/24 03:14:01;;;;;;;6.60;3.05;;;1.10;74.70;;;;;;4964181;28;20134;-75
2021/04/24 03:16:27;;;;;;;4.32;2.60;;;1.10;74.30;;;;;;4968740;28;20105;-75
2021/04/24 03:18:53;;;;;;;4.65;2.38;;;1.20;74.30;;;;;;4973752;28;20061;-74
2021/04/24 03:21:21;;;;;;;4.80;3.17;;;1.30;73.90;;;;;;4968267;28;20057;-75
2021/04/24 03:23:47;;;;;;;4.95;2.92;;;1.10;76.10;;;;;;4970194;28;20027;-75
2021/04/24 03:26:13;;;;;;;3.78;2.75;;;1.00;75.50;;;;;;4971891;28;20038;-75
2021/04/24 03:28:39;;;;;;;5.28;3.50;;;1.10;75.80;;;;;;4972341;28;20489;-75
2021/04/24 03:31:05;;;;;;;6.03;2.95;;;1.00;76.30;;;;;;4987197;28;20035;-75
2021/04/24 03:33:30;;;;;;;8.82;3.05;;;1.00;75.50;;;;;;4963648;28;20065;-75
2021/04/24 03:35:56;;;;;;;4.60;3.60;;;1.10;74.90;;;;;;4964041;28;20034;-75
2021/04/24 03:38:22;;;;;;;4.28;2.90;;;1.20;75.30;;;;;;4971523;28;20038;-75
2021/04/24 03:40:47;;;;;;;3.78;2.90;;;1.20;74.60;;;;;;4982729;28;20461;-76
2021/04/24 03:43:13;;;;;;;5.22;3.17;;;1.20;74.20;;;;;;4969793;28;20505;-75
2021/04/24 03:45:39;;;;;;;4.30;2.60;;;1.20;73.90;;;;;;4966110;28;20038;-75
2021/04/24 03:48:06;;;;;;;4.25;3.10;;;1.20;73.80;;;;;;4969933;28;20027;-75
2021/04/24 03:50:32;;;;;;;4.35;2.35;;;1.20;73.60;;;;;;4971715;28;20046;-75
2021/04/24 03:52:58;;;;;;;3.28;2.72;;;1.00;70.80;;;;;;4969633;28;20561;-75
2021/04/24 03:55:24;;;;;;;4.75;2.90;;;0.70;70.90;;;;;;4968283;28;20056;-74
2021/04/24 03:57:51;;;;;;;5.65;3.22;;;0.60;72.30;;;;;;4971704;28;20390;-75
2021/04/24 04:00:19;;;;;;;3.97;3.15;;;0.60;72.50;;;;;;4966632;28;20035;-76
2021/04/24 04:02:51;;;;;;;5.40;3.20;;;0.60;73.90;;;;;;4966619;28;20023;-75
2021/04/24 04:05:18;;;;;;;3.97;2.97;;;0.70;74.00;;;;;;4970691;28;20143;-76
2021/04/24 04:07:45;;;;;;;2.95;2.72;;;0.70;74.70;;;;;;4964661;28;20070;-75
2021/04/24 04:10:13;;;;;;;5.05;3.33;;;0.80;74.50;;;;;;4969022;28;20655;-75
2021/04/24 04:12:39;;;;;;;8.35;3.63;;;0.80;74.90;;;;;;4965550;28;20038;-74
2021/04/24 04:15:06;;;;;;;6.10;3.17;;;0.80;74.70;;;;;;4967449;28;20022;-75
2021/04/24 04:17:32;;;;;;;5.50;2.95;;;0.80;74.50;;;;;;4966995;28;20449;-75
2021/04/24 04:19:58;;;;;;;3.35;2.83;;;0.90;74.60;;;;;;4972261;28;20042;-75
2021/04/24 04:22:25;;;;;;;3.88;3.38;;;0.80;74.30;;;;;;4971320;28;20027;-76
2021/04/24 04:24:51;;;;;;;4.90;2.92;;;0.90;74.30;;;;;;4967344;28;20031;-76
2021/04/24 04:27:17;;;;;;;5.63;3.42;;;0.90;74.20;;;;;;4969643;28;20023;-75
2021/04/24 04:29:43;;;;;;;3.97;2.60;;;0.80;74.30;;;;;;4970654;28;20041;-75
2021/04/24 04:32:09;;;;;;;4.18;3.08;;;0.70;73.50;;;;;;4967818;28;20570;-75
2021/04/24 04:34:34;;;;;;;6.60;3.08;;;0.50;73.20;;;;;;4964951;28;20019;-74
2021/04/24 04:37:00;;;;;;;3.55;2.80;;;0.30;74.40;;;;;;4967694;28;20035;-75
2021/04/24 04:39:26;;;;;;;2.42;2.20;;;0.30;75.60;;;;;;4971324;28;20039;-74
2021/04/24 04:41:51;;;;;;;4.18;2.95;;;0.30;74.90;;;;;;4970024;28;20034;-75
2021/04/24 04:44:17;;;;;;;7.65;2.88;;;0.40;74.50;;;;;;4966540;28;20055;-75
2021/04/24 04:46:43;;;;;;;4.53;3.00;;;0.40;74.50;;;;;;4969347;28;20038;-76
2021/04/24 04:49:08;;;;;;;4.55;2.67;;;0.50;75.30;;;;;;4968631;28;20026;-75
2021/04/24 04:51:34;;;;;;;7.05;3.40;;;0.60;75.10;;;;;;4967923;28;20560;-76
2021/04/24 04:54:00;;;;;;;3.97;2.83;;;0.70;75.00;;;;;;4963744;28;20457;-75
2021/04/24 04:56:25;;;;;;;4.18;2.78;;;0.80;74.50;;;;;;4966204;28;20370;-75
2021/04/24 04:58:51;;;;;;;8.32;2.78;;;0.70;74.90;;;;;;4963786;28;20581;-76
2021/04/24 05:01:18;;;;;;;6.93;3.13;;;0.70;75.00;;;;;;4967591;28;20035;-75
2021/04/24 05:03:44;;;;;;;5.68;3.10;;;0.60;74.90;;;;;;4963550;28;20046;-75
2021/04/24 05:06:10;;;;;;;5.13;2.78;;;0.50;75.80;;;;;;4966274;28;20061;-75
2021/04/24 05:08:36;;;;;;;4.45;2.90;;;0.40;75.90;;;;;;4964409;28;20034;-75
2021/04/24 05:11:03;;;;;;;5.78;2.55;;;0.50;76.00;;;;;;4975942;28;20511;-75
2021/04/24 05:13:29;;;;;;;5.60;3.20;;;0.60;74.60;;;;;;4964442;28;20050;-75
2021/04/24 05:15:55;;;;;;;4.90;3.33;;;0.70;74.40;;;;;;4984516;28;20030;-74
2021/04/24 05:18:22;;;;;;;9.63;3.30;;;0.80;74.30;;;;;;4968248;28;20031;-75
2021/04/24 05:20:47;;;;;;;6.75;3.20;;;0.80;75.00;;;;;;4964714;28;20093;-75
2021/04/24 05:23:13;;;;;;;4.97;2.88;;;0.80;75.70;;;;;;4968564;28;20688;-75
2021/04/24 05:25:39;;;;;;;5.28;3.50;;;0.90;75.80;;;;;;4969460;28;20026;-76
2021/04/24 05:28:05;;;;;;;6.90;3.38;;;1.00;77.10;;;;;;4982065;28;20027;-74
2021/04/24 05:30:31;;;;;;;5.43;3.67;;;1.00;77.40;;;;;;4962283;28;20150;-75
2021/04/24 05:32:58;;;;;;;5.78;2.83;;;1.10;76.10;;;;;;4962191;28;20035;-75
2021/04/24 05:35:24;;;;;;;7.22;3.70;;;1.20;77.60;;;;;;4967645;28;20046;-75
2021/04/24 05:37:50;;;;;;;6.55;3.35;;;1.30;77.40;;;;;;4967777;28;20030;-75
2021/04/24 05:40:16;;;;;;;7.43;3.50;;;1.30;77.40;;;;;;4966258;28;20023;-75
2021/04/24 05:42:42;;;;;;;4.30;3.72;;;1.40;77.30;;;;;;4968159;28;20106;-75
2021/04/24 05:45:12;;;;;;;5.53;3.53;;;1.50;76.70;;;;;;4962072;28;20097;-74
2021/04/24 05:47:43;;;;;;;4.82;3.30;;;1.60;76.30;;;;;;4964492;28;20378;-75
2021/04/24 05:50:10;;;;;;;5.95;3.17;;;1.70;76.80;;;;;;4968389;28;20034;-74
2021/04/24 05:52:37;;;;;;;7.10;3.95;;;1.80;77.00;;;;;;4968328;28;20193;-75
2021/04/24 05:55:04;;;;;;;7.20;4.40;;;1.90;76.30;;;;;;4966606;28;20450;-74
2021/04/24 05:57:31;;;;;;;12.07;4.10;;;2.00;76.60;;;;;;4967259;28;20113;-75
2021/04/24 05:59:57;;;;;;;6.25;3.53;;;2.10;75.80;;;;;;4963932;28;20517;-75
2021/04/24 06:02:22;;;;;;;5.63;3.47;;;2.20;75.70;;;;;;4963883;28;20254;-75
2021/04/24 06:04:48;;;;;;;4.68;3.85;;;2.30;75.80;;;;;;4964910;28;20035;-75
2021/04/24 06:07:14;;;;;;;5.70;3.70;;;2.40;76.00;;;;;;4964951;28;20039;-75
2021/04/24 06:09:40;;;;;;;4.47;3.50;;;2.50;75.50;;;;;;4976559;28;20804;-75
2021/04/24 06:12:07;;;;;;;6.20;3.65;;;2.60;75.20;;;;;;4965966;28;20035;-75
2021/04/24 06:14:34;;;;;;;6.78;4.55;;;2.70;75.10;;;;;;4963911;28;20099;-75
2021/04/24 06:17:00;;;;;;;6.38;4.00;;;2.90;75.30;;;;;;4965606;28;20419;-75
2021/04/24 06:19:27;;;;;;;6.50;4.50;;;3.00;75.20;;;;;;4964998;28;20023;-74
2021/04/24 06:21:54;;;;;;;10.50;5.05;;;3.10;74.80;;;;;;4962034;28;20078;-75
2021/04/24 06:24:20;;;;;;;10.57;4.97;;;3.20;74.30;;;;;;4966679;28;20030;-75
2021/04/24 06:26:45;;;;;;;8.13;4.57;;;3.30;74.20;;;;;;4976454;28;20042;-76
2021/04/24 06:29:11;;;;;;;7.60;4.18;;;3.50;74.30;;;;;;4960291;28;20046;-75
2021/04/24 06:31:37;;;;;;;11.05;4.53;;;3.60;73.80;;;;;;4967410;28;20031;-75
2021/04/24 06:34:03;;;;;;;6.75;4.18;;;3.70;73.50;;;;;;4962617;28;20057;-75
2021/04/24 06:36:28;;;;;;;7.55;5.25;;;3.90;72.50;;;;;;4963061;28;20150;-75
2021/04/24 06:38:55;;;;;;;8.70;5.57;;;4.10;72.90;;;;;;4968301;28;20474;-75
2021/04/24 06:41:21;;;;;;;11.80;5.13;;;4.30;72.30;;;;;;4962397;28;20027;-75
2021/04/24 06:43:46;;;;;;;9.70;4.30;;;4.40;71.70;;;;;;4965704;28;20071;-74
2021/04/24 06:46:12;;;;;;;10.60;5.47;;;4.50;72.30;;;;;;4961956;28;20078;-75
2021/04/24 06:48:38;;;;;;;7.85;5.40;;;4.70;72.70;;;;;;4953815;28;20493;-76
2021/04/24 06:51:04;;;;;;;7.78;5.15;;;4.80;73.20;;;;;;4954137;28;20018;-75
2021/04/24 06:53:30;;;;;;;10.98;6.53;;;5.00;72.30;;;;;;4958237;28;20026;-75
2021/04/24 06:55:57;;;;;;;13.35;6.05;;;5.20;72.50;;;;;;4966589;28;20027;-73
2021/04/24 06:58:25;;;;;;;14.93;6.25;;;5.30;72.60;;;;;;4961942;28;20023;-74
2021/04/24 07:00:52;;;;;;;9.68;5.13;;;5.50;71.50;;;;;;4957255;28;20147;-75
2021/04/24 07:03:18;;;;;;;11.15;5.82;;;5.60;71.50;;;;;;4959135;28;20030;-75
2021/04/24 07:05:44;;;;;;;11.18;5.72;;;5.80;70.70;;;;;;4960715;28;21605;-75
2021/04/24 07:08:09;;;;;;;10.48;6.00;;;6.00;70.70;;;;;;4961401;28;20086;-75
2021/04/24 07:10:35;;;;;;;8.88;6.15;;;6.20;71.10;;;;;;4962151;28;20082;-75
2021/04/24 07:13:00;;;;;;;8.48;6.07;;;6.40;69.00;;;;;;4970543;28;20042;-75
2021/04/24 07:15:26;;;;;;;11.50;5.97;;;6.50;69.40;;;;;;4970265;28;20038;-74
2021/04/24 07:17:52;;;;;;;13.35;6.10;;;6.70;69.30;;;;;;4985201;28;20027;-75
2021/04/24 07:20:19;;;;;;;7.78;5.50;;;6.90;67.60;;;;;;4967787;28;20027;-75
2021/04/24 07:22:44;;;;;;;9.75;6.60;;;7.10;66.50;;;;;;4970646;28;20489;-75
2021/04/24 07:25:11;;;;;;;9.30;6.50;;;7.30;67.10;;;;;;4967185;28;20042;-75
2021/04/24 07:27:36;;;;;;;15.52;6.15;;;7.40;67.00;;;;;;4961906;28;20031;-75
2021/04/24 07:30:04;;;;;;;11.88;6.50;;;7.60;67.00;;;;;;4964079;28;20098;-75
2021/04/24 07:32:30;;;;;;;13.40;7.32;;;7.80;67.60;;;;;;4966371;28;20039;-75
2021/04/24 07:34:56;;;;;;;11.18;6.45;;;8.00;65.80;;;;;;4969350;28;20429;-75
2021/04/24 07:37:21;;;;;;;9.38;6.47;;;8.30;67.40;;;;;;4967412;28;20027;-73
2021/04/24 07:39:47;;;;;;;13.23;6.10;;;8.40;62.90;;;;;;4962093;28;20525;-74
2021/04/24 07:42:13;;;;;;;10.75;6.20;;;8.60;64.30;;;;;;4968949;28;20046;-74
2021/04/24 07:44:39;;;;;;;12.02;6.43;;;8.80;61.50;;;;;;4965576;28;20147;-74
2021/04/24 07:47:08;;;;;;;9.85;6.55;;;9.00;62.80;;;;;;4974207;28;20023;-74
2021/04/24 07:49:34;;;;;;;14.68;6.35;;;9.10;60.70;;;;;;4971191;28;20023;-75
2021/04/24 07:52:03;;;;;;;11.25;6.72;;;9.20;60.60;;;;;;4972985;28;20035;-74
2021/04/24 07:54:29;;;;;;;12.48;6.70;;;9.40;61.60;;;;;;4973245;28;20019;-74
2021/04/24 07:56:56;;;;;;;11.02;6.18;;;9.50;60.70;;;;;;4970184;28;20022;-74
2021/04/24 07:59:22;;;;;;;11.75;6.68;;;9.70;60.70;;;;;;4968958;28;20042;-75
2021/04/24 08:01:47;;;;;;;9.57;6.20;;;9.80;59.00;;;;;;4967842;28;20105;-75
2021/04/24 08:04:13;;;;;;;12.05;6.82;;;10.00;58.30;;;;;;4965390;28;20046;-75
2021/04/24 08:06:39;;;;;;;12.75;5.97;;;10.20;58.40;;;;;;4973283;28;20027;-74
2021/04/24 08:09:06;;;;;;;12.30;6.60;;;10.30;58.60;;;;;;4963864;28;20049;-73
2021/04/24 08:11:32;;;;;;;10.65;5.43;;;10.50;56.10;;;;;;4961541;28;20034;-75
2021/04/24 08:13:58;;;;;;;9.40;5.95;;;10.70;56.40;;;;;;4968003;28;20034;-75
2021/04/24 08:16:24;;;;;;;11.80;6.57;;;10.80;56.00;;;;;;4970342;28;20027;-74
2021/04/24 08:18:49;;;;;;;11.27;6.45;;;11.00;58.60;;;;;;4967522;28;20034;-75
2021/04/24 08:21:16;;;;;;;10.50;5.65;;;11.10;56.00;;;;;;4970158;28;20030;-74
2021/04/24 08:23:42;;;;;;;11.50;6.50;;;11.30;55.70;;;;;;4968981;28;20643;-74
2021/04/24 08:26:07;;;;;;;10.48;6.38;;;11.50;57.80;;;;;;4976486;28;20158;-74
2021/04/24 08:28:33;;;;;;;14.77;6.32;;;11.60;54.20;;;;;;4969590;28;20509;-74
2021/04/24 08:30:58;;;;;;;10.98;6.40;;;11.80;54.00;;;;;;4962665;28;20106;-74
2021/04/24 08:33:24;;;;;;;8.50;5.70;;;11.80;54.70;;;;;;4963531;28;20528;-75
2021/04/24 08:35:50;;;;;;;10.77;5.65;;;11.90;51.30;;;;;;4954316;28;20187;-75
2021/04/24 08:38:15;;;;;;;8.77;5.70;;;12.00;52.30;;;;;;4962278;28;20029;-75
2021/04/24 08:40:41;;;;;;;14.25;6.90;;;12.10;49.40;;;;;;4970851;28;20548;-75
2021/04/24 08:43:07;;;;;;;12.43;6.07;;;12.20;49.80;;;;;;4965185;28;20026;-75
2021/04/24 08:45:35;;;;;;;14.57;6.72;;;12.30;48.50;;;;;;4971927;28;20066;-75
2021/04/24 08:48:02;;;;;;;14.23;6.57;;;12.40;51.70;;;;;;4961568;28;20020;-75
2021/04/24 08:50:29;;;;;;;11.75;5.82;;;12.50;47.20;;;;;;4961330;28;20049;-74
2021/04/24 08:52:56;;;;;;;12.32;5.68;;;12.60;46.40;;;;;;4963821;28;20596;-75
2021/04/24 08:55:26;;;;;;;14.88;6.50;;;12.60;43.10;;;;;;4964599;28;20034;-73
2021/04/24 08:57:52;;;;;;;9.15;5.57;;;12.70;46.50;;;;;;4969768;28;20023;-75
2021/04/24 09:00:23;;;;;;;8.30;5.35;;;12.80;48.00;;;;;;4956972;28;20027;-75
2021/04/24 09:02:49;;;;;;;9.07;5.40;;;12.90;47.50;;;;;;4963426;28;20026;-75
2021/04/24 09:05:17;;;;;;;11.50;5.63;;;13.10;43.00;;;;;;4973814;28;20058;-75
2021/04/24 09:07:43;;;;;;;9.88;5.43;;;13.10;45.40;;;;;;4959751;28;20490;-75
2021/04/24 09:10:16;;;;;;;9.32;5.30;;;13.20;43.20;;;;;;4958484;28;20126;-74
2021/04/24 09:12:46;;;;;;;13.13;6.18;;;13.20;43.90;;;;;;4955684;28;20454;-75
2021/04/24 09:15:23;;;;;;;12.75;5.95;;;13.20;41.10;;;;;;4963614;28;20023;-75
2021/04/24 09:17:54;;;;;;;9.13;4.60;;;13.20;43.00;;;;;;4968763;28;20023;-74
2021/04/24 09:20:22;;;;;;;14.68;5.50;;;13.40;42.80;;;;;;4963203;28;20030;-75
2021/04/24 09:22:57;;;;;;;14.10;6.40;;;13.60;43.90;;;;;;4969069;28;20030;-75
2021/04/24 09:25:37;;;;;;;8.88;4.90;;;13.80;41.60;;;;;;4956309;28;20059;-75
2021/04/24 09:28:05;;;;;;;8.00;4.70;;;14.00;41.20;;;;;;4965808;28;20026;-75
2021/04/24 09:30:36;;;;;;;8.45;4.88;;;13.90;43.30;;;;;;4965004;28;20047;-73
2021/04/24 09:33:10;;;;;;;10.10;5.47;;;14.10;39.40;;;;;;4957946;28;20029;-75
2021/04/24 09:35:45;;;;;;;16.55;5.72;;;14.20;40.90;;;;;;4966588;28;20027;-75
2021/04/24 09:38:30;;;;;;;10.48;4.70;;;14.20;43.80;;;;;;4962199;28;20046;-74
2021/04/24 09:41:12;;;;;;;8.85;5.28;;;14.20;40.10;;;;;;4966581;28;20107;-74
2021/04/24 09:43:57;;;;;;;12.65;5.97;;;14.30;39.80;;;;;;4964308;28;20517;-75
2021/04/24 09:46:36;;;;;;;9.65;5.32;;;14.40;41.20;;;;;;4966277;28;20125;-75
2021/04/24 09:49:15;;;;;;;10.80;4.90;;;14.50;38.10;;;;;;4958310;28;20102;-75
2021/04/24 09:51:52;;;;;;;9.40;5.43;;;14.50;39.70;;;;;;4957657;28;20117;-75
2021/04/24 09:54:20;;;;;;;9.50;5.20;;;14.50;37.10;;;;;;4969668;28;20027;-75
2021/04/24 09:57:02;;;;;;;8.02;5.30;;;14.70;39.30;;;;;;4969515;28;20611;-74
2021/04/24 09:59:29;;;;;;;8.15;4.85;;;14.90;41.20;;;;;;4961559;28;20058;-75
2021/04/24 10:02:04;;;;;;;9.65;4.75;;;14.90;38.30;;;;;;4959303;28;20074;-74
2021/04/24 10:04:31;;;;;;;8.30;4.63;;;15.00;37.70;;;;;;4965942;28;20130;-76
2021/04/24 10:06:56;;;;;;;8.25;5.18;;;15.10;38.10;;;;;;4955280;28;20051;-75
2021/04/24 10:09:27;;;;;;;11.98;5.40;;;15.10;36.60;;;;;;4966349;28;20071;-75
2021/04/24 10:12:03;;;;;;;9.80;5.50;;;15.00;39.50;;;;;;4958960;28;20039;-75
2021/04/24 10:14:37;;;;;;;15.65;5.05;;;14.90;33.80;;;;;;4961018;28;20509;-75
2021/04/24 10:17:09;;;;;;;7.45;4.45;;;15.00;36.00;;;;;;4966326;28;20034;-75
2021/04/24 10:19:36;;;;;;;9.18;3.95;;;15.10;34.40;;;;;;4964266;28;20030;-76
2021/04/24 10:22:05;;;;;;;8.95;4.10;;;15.20;34.70;;;;;;4960622;28;20068;-75
2021/04/24 10:24:31;;;;;;;7.65;4.43;;;15.30;33.80;;;;;;4960276;28;20051;-77
2021/04/24 10:26:57;;;;;;;8.43;4.65;;;15.40;35.00;;;;;;4963526;28;20514;-75
2021/04/24 10:29:24;;;;;;;8.45;4.45;;;15.50;33.50;;;;;;4963993;28;20647;-76
2021/04/24 10:31:51;;;;;;;9.88;5.10;;;15.50;36.90;;;;;;4963302;28;20069;-76
2021/04/24 10:34:17;;;;;;;14.57;6.25;;;15.50;35.30;;;;;;4967417;28;20030;-76
2021/04/24 10:36:43;;;;;;;8.13;5.13;;;15.30;35.90;;;;;;4966810;28;20015;-74
2021/04/24 10:39:31;;;;;;;9.05;4.57;;;15.30;34.70;;;;;;4971293;28;20071;-77
2021/04/24 10:41:56;;;;;;;6.90;4.28;;;15.20;36.90;;;;;;4971810;28;20026;-76
2021/04/24 10:44:24;;;;;;;7.32;3.80;;;15.20;34.20;;;;;;4968687;28;20430;-73
2021/04/24 10:46:55;;;;;;;7.18;4.38;;;15.30;32.30;;;;;;4971363;28;20031;-75
2021/04/24 10:49:27;;;;;;;9.93;5.25;;;15.40;32.60;;;;;;4970382;28;20031;-74
2021/04/24 10:51:57;;;;;;;6.57;4.10;;;15.50;32.80;;;;;;4972936;28;20027;-74
2021/04/24 10:54:28;;;;;;;5.43;3.60;;;15.40;30.60;;;;;;4970877;28;20019;-75
2021/04/24 10:56:54;;;;;;;7.00;3.80;;;15.50;30.60;;;;;;4969276;28;20023;-76
2021/04/24 10:59:24;;;;;;;12.00;4.35;;;15.50;27.70;;;;;;4964077;28;20612;-76
2021/04/24 11:02:09;;;;;;;7.25;4.20;;;15.60;32.80;;;;;;4966792;28;20102;-75
2021/04/24 11:04:49;;;;;;;6.60;4.15;;;15.60;32.70;;;;;;4959955;28;20047;-76
2021/04/24 11:07:15;;;;;;;7.95;4.30;;;15.70;32.10;;;;;;4983896;28;20401;-75
2021/04/24 11:09:41;;;;;;;8.55;4.43;;;15.60;31.70;;;;;;4973685;28;20122;-76
2021/04/24 11:12:13;;;;;;;6.38;4.25;;;15.80;36.80;;;;;;4966569;28;20453;-76
2021/04/24 11:14:41;;;;;;;7.80;4.53;;;15.70;32.40;;;;;;4968141;28;20106;-75
2021/04/24 11:17:08;;;;;;;;;;;15.70;32.70;;;;;;4973352;28;20381;-75
2021/04/24 11:19:47;;;;;;;9.50;4.65;;;15.80;31.40;;;;;;4975696;28;20438;-75
2021/04/24 11:22:37;;;;;;;9.27;4.45;;;15.70;28.90;;;;;;4963540;28;20039;-74
2021/04/24 11:25:22;;;;;;;9.82;4.65;;;15.80;29.40;;;;;;4968625;28;20035;-76
2021/04/24 11:28:10;;;;;;;9.70;4.72;;;16.00;36.50;;;;;;4983116;28;20042;-75
2021/04/24 11:30:58;;;;;;;8.88;4.78;;;16.10;34.00;;;;;;4962830;28;20030;-75
2021/04/24 11:33:44;;;;;;;16.55;5.03;;;16.00;30.30;;;;;;4967069;28;20470;-75
2021/04/24 11:36:17;;;;;;;7.57;4.47;;;16.00;31.80;;;;;;4964640;28;20104;-75
2021/04/24 11:38:59;;;;;;;9.45;5.00;;;15.90;30.80;;;;;;4975129;28;20026;-75
2021/04/24 11:41:41;;;;;;;10.95;5.15;;;15.90;30.00;;;;;;4969321;28;20183;-74
2021/04/24 11:44:15;;;;;;;9.38;5.20;;;16.00;33.40;;;;;;4975838;28;20054;-75
2021/04/24 11:46:41;;;;;;;7.15;4.32;;;16.10;32.80;;;;;;4970200;28;20031;-76
2021/04/24 11:49:16;;;;;;;10.05;4.72;;;16.20;30.70;;;;;;4960548;28;20035;-76
2021/04/24 11:51:56;;;;;;;8.48;4.68;;;16.30;31.80;;;;;;4970171;28;20552;-76
2021/04/24 11:54:26;;;;;;;8.38;4.28;;;16.40;34.10;;;;;;4962981;28;20074;-76
2021/04/24 11:56:52;;;;;;;8.52;4.80;;;16.50;33.30;;;;;;4967554;28;20500;-76
2021/04/24 11:59:26;;;;;;;9.02;4.53;;;16.50;35.10;;;;;;4970730;28;20070;-75
2021/04/24 12:01:58;;;;;;;8.27;4.78;;;16.60;35.40;;;;;;4963925;28;20035;-76
2021/04/24 12:04:35;;;;;;;9.48;4.75;;;16.50;36.60;;;;;;4991214;28;20030;-75
2021/04/24 12:07:02;;;;;;;9.20;5.03;;;16.50;35.20;;;;;;4970259;28;20030;-76
2021/04/24 12:09:28;;;;;;;9.10;4.90;;;16.40;35.00;;;;;;4963073;28;20043;-77
2021/04/24 12:11:59;;;;;;;10.50;5.57;;;16.40;34.40;;;;;;4968444;28;20037;-76
2021/04/24 12:14:26;;;;;;;8.50;5.22;;;16.40;37.10;;;;;;4962558;28;20066;-76
2021/04/24 12:16:52;;;;;;;8.73;4.63;;;16.50;37.10;;;;;;4962146;28;20015;-75
2021/04/24 12:19:21;;;;;;;11.43;4.80;;;16.50;33.00;;;;;;4961343;28;20275;-76
2021/04/24 12:21:58;;;;;;;8.88;4.80;;;16.50;31.90;;;;;;4961893;28;20097;-76
2021/04/24 12:24:23;;;;;;;8.10;4.57;;;16.40;33.00;;;;;;4967277;28;20054;-77
2021/04/24 12:26:49;;;;;;;6.40;4.25;;;16.40;30.50;;;;;;4969614;28;20037;-76
2021/04/24 12:29:14;;;;;;;9.68;5.50;;;16.50;31.10;;;;;;4968908;28;20729;-77
2021/04/24 12:31:40;;;;;;;10.18;5.10;;;16.50;30.30;;;;;;4968914;28;20078;-76
2021/04/24 12:34:06;;;;;;;8.55;4.93;;;16.50;31.50;;;;;;4967278;28;20027;-76
2021/04/24 12:36:38;;;;;;;9.57;4.45;;;16.50;30.90;;;;;;4967796;28;20026;-76
2021/04/24 12:39:17;;;;;;;8.13;4.80;;;16.50;29.70;;;;;;4971802;28;20038;-77
2021/04/24 12:41:49;;;;;;;9.38;4.97;;;16.50;31.30;;;;;;4966524;28;20051;-77
2021/04/24 12:44:28;;;;;;;10.43;4.93;;;16.60;37.00;;;;;;4976005;28;20035;-76
2021/04/24 12:46:54;;;;;;;10.93;5.63;;;16.60;35.20;;;;;;4974741;28;20573;-76
2021/04/24 12:49:19;;;;;;;9.00;5.30;;;16.60;35.80;;;;;;4971291;28;20114;-76
2021/04/24 12:52:11;;;;;;;8.82;5.15;;;16.50;36.90;;;;;;4970658;28;20027;-76
2021/04/24 12:54:37;;;;;;;10.90;5.43;;;16.50;34.50;;;;;;4981658;28;20029;-76